createdAt,value
2023-04-10T00:00:58.667Z,100759.34
2023-04-10T00:03:44.588Z,100744.00
2023-04-10T00:06:31.677Z,100744.63
2023-04-10T00:09:17.791Z,100744.16
2023-04-10T00:12:05.406Z,100736.06
2023-04-10T00:14:51.419Z,100738.91
2023-04-10T00:17:37.482Z,100739.13
2023-04-10T00:20:33.042Z,100732.72
2023-04-10T00:23:18.907Z,100730.72
2023-04-10T00:26:11.874Z,100723.63
2023-04-10T00:29:08.140Z,100719.44
2023-04-10T00:32:00.805Z,100727.63
2023-04-10T00:34:53.857Z,100718.44
2023-04-10T00:37:46.417Z,100714.25
2023-04-10T00:40:38.964Z,100700.69
2023-04-10T00:43:38.159Z,100704.66
2023-04-10T00:46:32.456Z,100703.91
2023-04-10T00:49:24.948Z,100701.28
2023-04-10T00:52:18.700Z,100703.19
2023-04-10T00:55:11.932Z,100709.88
2023-04-10T00:58:04.624Z,100701.19
2023-04-10T01:04:16.126Z,100697.78
2023-04-10T01:10:32.136Z,100692.25
2023-04-10T01:13:29.502Z,100689.88
2023-04-10T01:16:35.264Z,100693.56
2023-04-10T01:22:50.943Z,100687.09
2023-04-10T01:25:46.475Z,100688.38
2023-04-10T01:29:00.142Z,100692.94
2023-04-10T01:31:55.241Z,100689.19
2023-04-10T01:34:50.321Z,100688.53
2023-04-10T01:37:44.433Z,100691.09
2023-04-10T01:41:02.800Z,100692.75
2023-04-10T01:43:58.852Z,100698.50
2023-04-10T01:47:20.977Z,100697.00
2023-04-10T01:50:16.288Z,100693.97
2023-04-10T01:53:23.730Z,100685.72
2023-04-10T01:56:16.231Z,100691.63
2023-04-10T01:59:13.644Z,100686.94
2023-04-10T02:02:07.817Z,100686.69
2023-04-10T02:05:01.203Z,100675.09
2023-04-10T02:11:12.594Z,100666.41
2023-04-10T02:14:09.250Z,100669.44
2023-04-10T02:17:03.738Z,100659.69
2023-04-10T02:19:57.020Z,100651.31
2023-04-10T02:22:49.969Z,100652.00
2023-04-10T02:25:42.325Z,100651.00
2023-04-10T02:31:48.375Z,100642.19
2023-04-10T02:34:43.706Z,100636.41
2023-04-10T02:37:37.016Z,100635.50
2023-04-10T02:43:40.451Z,100639.00
2023-04-10T02:50:00.489Z,100648.06
2023-04-10T02:56:25.674Z,100647.09
2023-04-10T02:59:18.627Z,100648.53
2023-04-10T03:02:12.034Z,100637.41
2023-04-10T03:05:08.976Z,100642.47
2023-04-10T03:08:01.711Z,100633.31
2023-04-10T03:10:54.673Z,100635.41
2023-04-10T03:13:48.813Z,100634.75
2023-04-10T03:16:41.991Z,100631.00
2023-04-10T03:19:34.545Z,100630.03
2023-04-10T03:22:30.271Z,100634.22
2023-04-10T03:25:23.489Z,100638.66
2023-04-10T03:28:41.980Z,100628.38
2023-04-10T03:31:35.312Z,100621.41
2023-04-10T03:37:57.926Z,100614.88
2023-04-10T03:41:08.089Z,100610.84
2023-04-10T03:43:57.584Z,100605.28
2023-04-10T03:50:12.011Z,100602.19
2023-04-10T03:56:35.284Z,100599.56
2023-04-10T04:02:32.613Z,100599.00
2023-04-10T04:08:38.662Z,100600.13
2023-04-10T04:14:55.342Z,100594.19
2023-04-10T04:17:47.796Z,100590.38
2023-04-10T04:21:25.366Z,100582.94
2023-04-10T04:24:32.534Z,100584.75
2023-04-10T04:27:41.719Z,100592.25
2023-04-10T04:30:49.938Z,100586.72
2023-04-10T04:33:52.254Z,100595.94
2023-04-10T04:36:54.365Z,100590.19
2023-04-10T04:43:04.977Z,100604.91
2023-04-10T04:49:41.320Z,100598.38
2023-04-10T04:56:04.946Z,100597.91
2023-04-10T04:59:26.931Z,100593.69
2023-04-10T05:02:33.969Z,100603.03
2023-04-10T05:05:34.078Z,100595.78
2023-04-10T05:08:38.330Z,100600.19
2023-04-10T05:11:50.675Z,100602.91
2023-04-10T05:14:47.181Z,100600.81
2023-04-10T05:18:06.604Z,100598.88
2023-04-10T05:21:09.558Z,100596.31
2023-04-10T05:24:20.692Z,100594.91
2023-04-10T05:27:27.597Z,100594.44
2023-04-10T05:30:38.862Z,100600.16
2023-04-10T05:33:51.055Z,100599.69
2023-04-10T05:37:04.026Z,100604.41
2023-04-10T05:40:16.833Z,100594.63
2023-04-10T05:43:38.805Z,100594.13
2023-04-10T05:46:51.856Z,100602.53
2023-04-10T05:50:03.791Z,100588.09
2023-04-10T05:53:20.205Z,100582.47
2023-04-10T05:56:43.068Z,100578.50
2023-04-10T05:59:54.575Z,100580.44
2023-04-10T06:02:47.870Z,100571.81
2023-04-10T06:05:49.051Z,100570.50
2023-04-10T06:08:43.341Z,100569.44
2023-04-10T06:11:35.888Z,100563.56
2023-04-10T06:14:28.682Z,100564.22
2023-04-10T06:17:25.667Z,100556.25
2023-04-10T06:20:18.859Z,100561.09
2023-04-10T06:23:12.272Z,100559.28
2023-04-10T06:26:06.443Z,100552.94
2023-04-10T06:28:58.762Z,100546.91
2023-04-10T06:31:58.250Z,100547.19
2023-04-10T06:34:51.623Z,100541.31
2023-04-10T06:37:44.664Z,100541.84
2023-04-10T06:40:37.664Z,100540.28
2023-04-10T06:43:33.502Z,100543.59
2023-04-10T06:46:25.911Z,100542.13
2023-04-10T06:49:55.916Z,100549.09
2023-04-10T06:52:48.908Z,100536.22
2023-04-10T06:56:18.963Z,100546.47
2023-04-10T06:59:13.191Z,100540.22
2023-04-10T07:02:05.639Z,100540.94
2023-04-10T07:04:59.148Z,100527.19
2023-04-10T07:07:51.646Z,100540.03
2023-04-10T07:10:44.772Z,100537.16
2023-04-10T07:13:39.871Z,100537.44
2023-04-10T07:16:34.141Z,100527.00
2023-04-10T07:19:41.143Z,100529.78
2023-04-10T07:22:33.664Z,100531.31
2023-04-10T07:28:47.910Z,100529.97
2023-04-10T07:34:47.271Z,100519.63
2023-04-10T07:37:40.195Z,100515.88
2023-04-10T07:40:32.324Z,100517.47
2023-04-10T07:43:24.750Z,100522.88
2023-04-10T07:49:38.910Z,100497.75
2023-04-10T07:55:58.170Z,100499.63
2023-04-10T07:58:52.613Z,100498.28
2023-04-10T08:01:45.771Z,100495.00
2023-04-10T08:04:38.923Z,100486.41
2023-04-10T08:10:40.703Z,100476.38
2023-04-10T08:13:34.630Z,100473.28
2023-04-10T08:20:55.875Z,100456.09
2023-04-10T08:23:51.636Z,100453.06
2023-04-10T08:26:44.468Z,100443.06
2023-04-10T08:29:44.828Z,100438.88
2023-04-10T08:32:37.957Z,100438.94
2023-04-10T08:35:30.273Z,100437.50
2023-04-10T08:38:25.047Z,100444.75
2023-04-10T08:41:19.308Z,100423.66
2023-04-10T08:44:12.921Z,100433.56
2023-04-10T08:47:06.661Z,100427.44
2023-04-10T08:50:03.133Z,100418.09
2023-04-10T08:52:56.375Z,100418.84
2023-04-10T08:55:50.611Z,100417.66
2023-04-10T09:02:04.490Z,100411.75
2023-04-10T09:08:18.302Z,100400.81
2023-04-10T09:14:23.155Z,100385.38
2023-04-10T09:17:17.782Z,100390.03
2023-04-10T09:20:22.042Z,100383.44
2023-04-10T09:23:21.764Z,100374.72
2023-04-10T09:26:27.567Z,100374.28
2023-04-10T09:29:48.900Z,100374.84
2023-04-10T09:32:42.932Z,100357.13
2023-04-10T09:35:39.415Z,100362.41
2023-04-10T09:38:32.423Z,100356.47
2023-04-10T09:44:40.043Z,100331.66
2023-04-10T09:47:34.511Z,100341.72
2023-04-10T09:50:38.695Z,100329.72
2023-04-10T09:53:33.577Z,100323.56
2023-04-10T09:56:27.696Z,100316.19
2023-04-10T09:59:20.496Z,100317.75
2023-04-10T10:02:14.383Z,100306.97
2023-04-10T10:05:10.080Z,100297.09
2023-04-10T10:08:02.434Z,100307.50
2023-04-10T10:11:15.311Z,100281.53
2023-04-10T10:14:04.162Z,100282.25
2023-04-10T10:16:51.438Z,100276.75
2023-04-10T10:19:42.443Z,100281.03
2023-04-10T10:22:30.255Z,100271.53
2023-04-10T10:25:16.991Z,100256.41
2023-04-10T10:28:04.578Z,100264.50
2023-04-10T10:30:51.294Z,100256.31
2023-04-10T10:33:39.171Z,100254.19
2023-04-10T10:36:26.077Z,100248.03
2023-04-10T10:39:22.837Z,100237.75
2023-04-10T10:42:11.690Z,100243.22
2023-04-10T10:45:02.519Z,100232.56
2023-04-10T10:47:51.427Z,100240.81
2023-04-10T10:50:51.362Z,100235.81
2023-04-10T10:53:39.643Z,100225.84
2023-04-10T10:56:37.173Z,100221.81
2023-04-10T10:59:54.494Z,100232.38
2023-04-10T11:02:40.712Z,100210.06
2023-04-10T11:05:49.848Z,100213.28
2023-04-10T11:08:44.784Z,100207.19
2023-04-10T11:11:58.911Z,100185.09
2023-04-10T11:18:03.693Z,100175.28
2023-04-10T15:02:57.183Z,99752.84
2023-04-10T15:05:50.839Z,99750.47
2023-04-10T15:11:59.793Z,99731.69
2023-04-10T15:14:53.177Z,99728.00
2023-04-10T15:17:45.823Z,99728.81
2023-04-10T15:20:39.971Z,99716.34
2023-04-10T15:23:32.663Z,99696.03
2023-04-10T15:30:01.535Z,99696.53
2023-04-10T15:32:54.692Z,99700.31
2023-04-10T15:35:49.757Z,99678.38
2023-04-10T15:42:05.103Z,99660.88
2023-04-10T15:44:57.403Z,99651.13
2023-04-10T15:51:06.340Z,99649.44
2023-04-10T15:57:10.873Z,99636.59
2023-04-10T16:00:04.324Z,99633.69
2023-04-10T16:02:56.698Z,99638.28
2023-04-10T16:05:49.498Z,99639.59
2023-04-10T16:08:43.584Z,99639.13
2023-04-10T16:11:36.641Z,99615.00
2023-04-10T16:14:29.728Z,99606.94
2023-04-10T16:17:22.837Z,99617.53
2023-04-10T16:20:15.892Z,99608.47
2023-04-10T16:23:08.435Z,99622.13
2023-04-10T16:26:15.902Z,99616.72
2023-04-10T16:29:09.871Z,99620.13
2023-04-10T16:35:48.623Z,99622.00
2023-04-10T16:38:56.063Z,99615.06
2023-04-10T16:41:48.257Z,99611.41
2023-04-10T16:44:42.018Z,99613.47
2023-04-10T16:50:43.290Z,99597.31
2023-04-10T16:53:36.874Z,99592.53
2023-04-10T16:56:29.522Z,99591.94
2023-04-10T16:59:22.521Z,99589.16
2023-04-10T17:02:16.972Z,99588.16
2023-04-10T17:05:10.990Z,99573.38
2023-04-10T17:08:04.045Z,99569.59
2023-04-10T17:11:12.546Z,99563.75
2023-04-10T17:14:03.994Z,99558.94
2023-04-10T17:16:56.509Z,99549.03
2023-04-10T17:19:51.013Z,99559.31
2023-04-10T17:22:43.893Z,99554.22
2023-04-10T17:28:53.276Z,99536.38
2023-04-10T17:35:04.452Z,99519.41
2023-04-10T17:37:57.233Z,99521.53
2023-04-10T17:40:49.653Z,99510.63
2023-04-10T17:43:42.947Z,99508.63
2023-04-10T17:46:35.359Z,99498.25
2023-04-10T17:49:27.353Z,99496.63
2023-04-10T17:52:20.805Z,99489.69
2023-04-10T17:55:18.200Z,99477.91
2023-04-10T17:58:14.006Z,99463.75
2023-04-10T18:04:18.928Z,99465.16
2023-04-10T18:10:29.249Z,99450.09
2023-04-10T18:13:21.863Z,99452.44
2023-04-10T18:16:14.790Z,99445.50
2023-04-10T18:19:11.955Z,99451.72
2023-04-10T18:22:04.778Z,99450.09
2023-04-10T18:24:57.293Z,99438.16
2023-04-10T18:28:13.173Z,99445.88
2023-04-10T18:34:26.907Z,99437.13
2023-04-10T18:37:19.722Z,99431.28
2023-04-10T18:40:16.440Z,99423.78
2023-04-10T18:43:19.488Z,99428.34
2023-04-10T18:46:12.501Z,99437.91
2023-04-10T18:49:42.769Z,99434.28
2023-04-10T18:52:35.295Z,99422.38
2023-04-10T18:55:41.614Z,99425.91
2023-04-10T18:58:36.145Z,99437.34
2023-04-10T19:01:28.703Z,99441.56
2023-04-10T19:04:21.957Z,99434.19
2023-04-10T19:07:14.645Z,99431.59
2023-04-10T19:10:08.703Z,99424.31
2023-04-10T19:13:01.661Z,99426.16
2023-04-10T19:15:56.283Z,99418.56
2023-04-10T19:18:48.938Z,99418.56
2023-04-10T19:24:53.928Z,99434.94
2023-04-10T19:31:05.347Z,99436.91
2023-04-10T19:33:57.726Z,99439.22
2023-04-10T19:36:50.589Z,99428.53
2023-04-10T19:39:43.892Z,99429.28
2023-04-10T19:42:36.562Z,99441.56
2023-04-10T19:45:29.930Z,99441.59
2023-04-10T19:48:24.042Z,99453.38
2023-04-10T19:51:16.842Z,99465.75
2023-04-10T19:54:09.535Z,99472.81
2023-04-10T19:57:27.690Z,99491.22
2023-04-10T20:00:20.320Z,99504.00
2023-04-10T20:03:26.685Z,99510.47
2023-04-10T20:06:22.031Z,99510.75
2023-04-10T20:13:00.459Z,99482.03
2023-04-10T20:15:55.722Z,99467.63
2023-04-10T20:18:48.529Z,99451.38
2023-04-10T20:21:42.618Z,99448.25
2023-04-10T20:24:36.091Z,99448.66
2023-04-10T20:27:28.354Z,99446.41
2023-04-10T20:30:20.798Z,99437.34
2023-04-10T20:33:13.797Z,99422.97
2023-04-10T20:39:20.280Z,99398.13
2023-04-10T20:42:12.981Z,99388.03
2023-04-10T20:48:17.877Z,99396.06
2023-04-10T20:51:11.008Z,99397.91
2023-04-10T20:54:04.368Z,99389.50
2023-04-10T21:00:00.363Z,99370.63
2023-04-10T21:02:53.021Z,99379.41
2023-04-10T21:05:45.471Z,99378.44
2023-04-10T21:08:38.431Z,99373.91
2023-04-10T21:11:31.376Z,99382.75
2023-04-10T21:14:23.441Z,99385.22
2023-04-10T21:17:19.132Z,99373.09
2023-04-10T21:20:12.760Z,99404.69
2023-04-10T21:23:05.666Z,99411.88
2023-04-10T21:25:58.758Z,99417.84
2023-04-10T21:28:51.680Z,99433.72
2023-04-10T21:31:44.775Z,99415.94
2023-04-10T21:34:39.222Z,99426.06
2023-04-10T21:40:56.312Z,99422.38
2023-04-10T21:43:48.566Z,99424.19
2023-04-10T21:46:41.452Z,99422.28
2023-04-10T21:49:34.351Z,99407.56
2023-04-10T21:52:27.826Z,99409.81
2023-04-10T21:55:20.904Z,99420.88
2023-04-10T22:01:59.346Z,99413.91
2023-04-10T22:04:54.798Z,99413.09
2023-04-10T22:07:48.701Z,99399.94
2023-04-10T22:10:41.529Z,99393.59
2023-04-10T22:13:31.117Z,99389.09
2023-04-10T22:16:24.487Z,99386.22
2023-04-10T22:19:17.793Z,99392.16
2023-04-10T22:22:10.712Z,99391.94
2023-04-10T22:25:05.945Z,99395.59
2023-04-10T22:27:58.756Z,99387.97
2023-04-10T22:30:51.693Z,99394.34
2023-04-10T22:33:44.809Z,99376.28
2023-04-10T22:36:37.881Z,99381.81
2023-04-10T22:39:24.488Z,99371.53
2023-04-10T22:42:18.992Z,99366.75
2023-04-10T22:45:13.215Z,99355.72
2023-04-10T22:48:06.113Z,99339.28
2023-04-10T22:50:58.449Z,99324.31
2023-04-10T22:53:51.277Z,99327.41
2023-04-10T22:56:44.041Z,99329.63
2023-04-10T22:59:38.134Z,99345.44
2023-04-10T23:02:31.278Z,99342.97
2023-04-10T23:05:24.894Z,99339.88
2023-04-10T23:08:17.546Z,99312.56
2023-04-10T23:11:11.153Z,99333.03
2023-04-10T23:14:03.494Z,99322.94
2023-04-10T23:16:58.042Z,99314.53
2023-04-10T23:19:50.751Z,99327.84
2023-04-10T23:22:43.462Z,99300.97
2023-04-10T23:25:37.706Z,99276.81
2023-04-10T23:28:30.206Z,99271.88
2023-04-10T23:31:22.468Z,99254.81
2023-04-10T23:34:17.034Z,99225.94
2023-04-10T23:37:17.671Z,99229.00
2023-04-10T23:40:04.449Z,99221.03
2023-04-10T23:42:50.545Z,99218.34
2023-04-10T23:45:36.780Z,99223.91
2023-04-10T23:48:23.006Z,99211.78
2023-04-10T23:51:10.611Z,99196.63
2023-04-10T23:53:56.400Z,99195.38
2023-04-10T23:59:58.905Z,99218.19
